createdAt,value
2023-05-05T00:02:17.928Z,59.67
2023-05-05T00:04:46.161Z,60.08
2023-05-05T00:07:15.437Z,59.89
2023-05-05T00:09:44.053Z,60.59
2023-05-05T00:12:12.342Z,60.62
2023-05-05T00:14:40.251Z,60.43
2023-05-05T00:17:08.132Z,60.60
2023-05-05T00:19:36.139Z,60.53
2023-05-05T00:22:03.977Z,60.86
2023-05-05T00:24:33.319Z,61.38
2023-05-05T00:27:02.162Z,61.44
2023-05-05T00:29:30.272Z,61.61
2023-05-05T00:31:58.091Z,62.04
2023-05-05T00:34:26.124Z,62.17
2023-05-05T00:36:54.115Z,61.88
2023-05-05T00:39:21.953Z,62.00
2023-05-05T00:41:51.803Z,62.14
2023-05-05T00:44:19.619Z,62.67
2023-05-05T00:46:47.583Z,62.34
2023-05-05T00:49:16.573Z,62.56
2023-05-05T00:51:44.438Z,62.74
2023-05-05T00:54:12.328Z,62.71
2023-05-05T00:56:40.610Z,63.02
2023-05-05T00:59:09.943Z,63.32
2023-05-05T01:01:38.046Z,63.13
2023-05-05T01:04:06.362Z,63.71
2023-05-05T01:06:48.263Z,63.85
2023-05-05T01:09:25.871Z,64.11
2023-05-05T01:12:02.126Z,63.82
2023-05-05T01:14:41.038Z,64.55
2023-05-05T01:17:17.143Z,64.82
2023-05-05T01:20:00.403Z,65.43
2023-05-05T01:22:39.441Z,65.24
2023-05-05T01:25:38.188Z,66.11
2023-05-05T01:28:25.336Z,66.03
2023-05-05T01:31:10.897Z,66.37
2023-05-05T01:33:45.246Z,66.25
2023-05-05T01:36:22.911Z,66.16
2023-05-05T01:38:56.956Z,66.48
2023-05-05T01:41:29.612Z,66.96
2023-05-05T01:44:00.915Z,66.65
2023-05-05T01:46:29.489Z,67.13
2023-05-05T01:49:00.305Z,67.29
2023-05-05T01:51:29.152Z,67.82
2023-05-05T01:54:00.259Z,67.66
2023-05-05T01:56:30.250Z,67.91
2023-05-05T01:59:01.256Z,67.86
2023-05-05T02:01:30.528Z,68.27
2023-05-05T02:04:02.680Z,68.52
2023-05-05T02:06:32.441Z,68.80
2023-05-05T02:09:01.508Z,68.59
2023-05-05T02:11:30.808Z,68.77
2023-05-05T02:14:00.106Z,68.92
2023-05-05T02:16:31.284Z,69.21
2023-05-05T02:19:05.072Z,69.16
2023-05-05T02:21:33.838Z,69.13
2023-05-05T02:24:02.235Z,69.34
2023-05-05T02:26:31.357Z,69.41
2023-05-05T02:29:05.295Z,69.65
2023-05-05T02:31:35.800Z,69.71
2023-05-05T02:34:08.469Z,70.06
2023-05-05T02:36:40.835Z,70.16
2023-05-05T02:39:14.384Z,70.48
2023-05-05T02:41:43.929Z,70.28
2023-05-05T02:44:15.752Z,70.33
2023-05-05T02:46:44.012Z,70.10
2023-05-05T02:49:13.331Z,70.23
2023-05-05T02:51:41.215Z,70.33
2023-05-05T02:54:09.326Z,70.66
2023-05-05T02:56:42.090Z,71.16
2023-05-05T02:59:16.195Z,71.07
2023-05-05T03:02:02.177Z,71.62
2023-05-05T03:04:39.556Z,71.40
2023-05-05T03:07:12.116Z,71.29
2023-05-05T03:09:44.632Z,71.16
2023-05-05T03:12:17.814Z,71.44
2023-05-05T03:14:47.146Z,71.33
2023-05-05T03:17:17.750Z,71.82
2023-05-05T03:19:49.093Z,71.71
2023-05-05T03:22:17.106Z,72.04
2023-05-05T03:24:51.503Z,72.07
2023-05-05T03:27:20.427Z,72.32
2023-05-05T03:29:48.265Z,72.25
2023-05-05T03:32:16.385Z,72.18
2023-05-05T03:34:44.207Z,72.34
2023-05-05T03:37:13.405Z,72.74
2023-05-05T03:39:41.449Z,72.50
2023-05-05T03:42:09.319Z,72.40
2023-05-05T03:44:37.138Z,72.53
2023-05-05T03:47:05.340Z,72.89
2023-05-05T03:49:33.154Z,72.95
2023-05-05T03:52:01.022Z,73.14
2023-05-05T03:54:30.535Z,73.66
2023-05-05T03:56:58.366Z,73.65
2023-05-05T03:59:26.193Z,73.61
2023-05-05T04:01:54.389Z,73.53
2023-05-05T04:04:22.281Z,73.87
2023-05-05T04:06:50.149Z,74.01
2023-05-05T04:09:18.236Z,74.19
2023-05-05T04:11:47.441Z,73.57
2023-05-05T04:14:15.275Z,74.14
2023-05-05T04:16:43.420Z,74.08
2023-05-05T04:19:13.405Z,73.47
2023-05-05T04:21:41.251Z,73.98
2023-05-05T04:24:09.869Z,74.05
2023-05-05T04:26:37.696Z,73.20
2023-05-05T04:29:06.951Z,73.64
2023-05-05T04:31:35.002Z,73.10
2023-05-05T04:34:02.931Z,73.69
2023-05-05T04:36:30.787Z,73.38
2023-05-05T04:38:58.896Z,73.54
2023-05-05T04:41:28.239Z,72.96
2023-05-05T04:43:57.866Z,73.64
2023-05-05T04:46:27.382Z,73.04
2023-05-05T04:48:55.247Z,73.47
2023-05-05T04:51:23.063Z,73.11
2023-05-05T04:53:51.133Z,72.69
2023-05-05T04:56:18.955Z,73.38
2023-05-05T04:58:46.865Z,72.79
2023-05-05T05:01:14.864Z,72.66
2023-05-05T05:03:44.264Z,72.74
2023-05-05T05:06:12.154Z,72.39
2023-05-05T05:08:40.107Z,72.68
2023-05-05T05:11:07.958Z,71.65
2023-05-05T05:13:35.843Z,72.07
2023-05-05T05:16:04.120Z,71.13
2023-05-05T05:18:32.090Z,71.72
2023-05-05T05:21:01.492Z,70.82
2023-05-05T05:23:29.517Z,70.82
2023-05-05T05:25:57.622Z,70.56
2023-05-05T05:28:25.835Z,70.47
2023-05-05T05:30:53.881Z,70.10
2023-05-05T05:33:21.698Z,69.94
2023-05-05T05:35:49.518Z,69.79
2023-05-05T05:38:19.042Z,69.40
2023-05-05T05:40:46.891Z,69.24
2023-05-05T05:43:14.745Z,68.83
2023-05-05T05:45:42.920Z,68.89
2023-05-05T05:48:10.848Z,68.62
2023-05-05T05:50:38.705Z,68.23
2023-05-05T05:53:07.013Z,68.12
2023-05-05T05:55:36.454Z,68.75
2023-05-05T05:58:04.330Z,67.85
2023-05-05T06:00:32.306Z,67.92
2023-05-05T06:03:02.598Z,67.77
2023-05-05T06:05:30.468Z,66.97
2023-05-05T06:07:58.655Z,67.12
2023-05-05T06:10:28.294Z,66.90
2023-05-05T06:12:57.805Z,66.29
2023-05-05T06:15:26.084Z,66.59
2023-05-05T06:17:53.977Z,66.30
2023-05-05T06:20:21.932Z,65.97
2023-05-05T06:22:49.936Z,66.01
2023-05-05T06:25:17.887Z,65.48
2023-05-05T06:27:46.035Z,65.41
2023-05-05T06:30:16.121Z,64.95
2023-05-05T06:32:44.000Z,64.84
2023-05-05T06:35:11.957Z,64.58
2023-05-05T06:37:40.059Z,64.16
2023-05-05T06:40:10.509Z,64.28
2023-05-05T06:42:38.683Z,63.85
2023-05-05T06:45:07.529Z,63.76
2023-05-05T06:47:37.246Z,63.58
2023-05-05T06:50:05.832Z,63.30
2023-05-05T06:52:34.034Z,63.25
2023-05-05T06:55:01.860Z,62.64
2023-05-05T06:57:29.725Z,62.69
2023-05-05T06:59:57.763Z,62.23
2023-05-05T07:02:26.916Z,61.63
2023-05-05T07:04:56.397Z,61.23
2023-05-05T07:07:24.671Z,60.47
2023-05-05T07:09:52.535Z,60.58
2023-05-05T07:12:20.374Z,60.29
2023-05-05T07:14:48.374Z,61.76
2023-05-05T07:17:16.252Z,62.69
2023-05-05T07:19:44.308Z,62.78
2023-05-05T07:22:13.668Z,60.62
2023-05-05T07:24:41.571Z,58.94
2023-05-05T07:27:09.546Z,56.93
2023-05-05T07:29:37.579Z,54.99
2023-05-05T07:32:05.906Z,52.50
2023-05-05T07:34:34.717Z,52.05
2023-05-05T07:37:04.162Z,50.16
2023-05-05T07:39:33.940Z,48.37
2023-05-05T07:42:02.510Z,47.31
2023-05-05T07:44:30.764Z,46.06
2023-05-05T07:46:58.606Z,45.11
2023-05-05T07:49:27.950Z,43.79
2023-05-05T07:51:57.278Z,43.12
2023-05-05T07:54:25.441Z,42.24
2023-05-05T07:56:54.664Z,41.34
2023-05-05T07:59:22.832Z,40.95
2023-05-05T08:01:52.080Z,39.99
2023-05-05T08:04:22.785Z,38.99
2023-05-05T08:06:50.704Z,38.07
2023-05-05T08:09:18.587Z,37.47
2023-05-05T08:11:46.498Z,36.68
2023-05-05T08:14:16.303Z,35.80
2023-05-05T08:16:44.131Z,35.21
2023-05-05T08:19:25.028Z,34.75
2023-05-05T08:21:56.431Z,34.60
2023-05-05T08:24:24.365Z,34.29
2023-05-05T08:26:52.233Z,33.54
2023-05-05T08:29:21.428Z,33.18
2023-05-05T08:31:49.469Z,32.64
2023-05-05T08:34:17.458Z,32.23
2023-05-05T08:36:45.319Z,32.08
2023-05-05T08:39:13.310Z,32.46
2023-05-05T08:41:41.321Z,33.12
2023-05-05T08:44:09.592Z,33.75
2023-05-05T08:46:40.473Z,34.08
2023-05-05T08:49:14.484Z,34.79
2023-05-05T08:51:47.059Z,35.12
2023-05-05T08:54:19.266Z,34.87
2023-05-05T08:56:50.787Z,36.19
2023-05-05T08:59:24.296Z,36.57
2023-05-05T09:01:54.914Z,37.23
2023-05-05T09:04:23.069Z,37.44
2023-05-05T09:06:51.365Z,37.62
2023-05-05T09:09:20.649Z,38.23
2023-05-05T09:11:48.586Z,38.59
2023-05-05T09:14:16.470Z,38.54
2023-05-05T09:16:44.542Z,39.01
2023-05-05T09:19:13.755Z,38.87
2023-05-05T09:21:48.761Z,39.09
2023-05-05T09:24:16.657Z,39.33
2023-05-05T09:26:45.658Z,39.14
2023-05-05T09:29:19.334Z,38.86
2023-05-05T09:32:05.403Z,39.62
2023-05-05T09:34:36.600Z,40.12
2023-05-05T09:37:06.206Z,39.76
2023-05-05T09:39:34.403Z,39.19
2023-05-05T09:42:03.947Z,37.68
2023-05-05T09:44:36.354Z,36.59
2023-05-05T09:47:09.530Z,35.84
2023-05-05T09:49:41.532Z,34.08
2023-05-05T09:52:19.267Z,33.05
2023-05-05T09:54:55.161Z,32.69
2023-05-05T09:57:30.608Z,32.77
2023-05-05T10:00:00.246Z,32.61
2023-05-05T10:02:33.950Z,31.87
2023-05-05T10:05:08.876Z,31.86
2023-05-05T10:07:37.288Z,32.56
2023-05-05T10:10:06.311Z,32.67
2023-05-05T10:12:36.671Z,32.67
2023-05-05T10:15:05.856Z,33.30
2023-05-05T10:17:36.891Z,33.44
2023-05-05T10:20:05.946Z,33.87
2023-05-05T10:22:36.743Z,34.54
2023-05-05T10:25:11.090Z,35.29
2023-05-05T10:27:44.894Z,35.90
2023-05-05T10:30:18.985Z,36.16
2023-05-05T10:33:04.138Z,36.31
2023-05-05T10:35:42.610Z,36.36
2023-05-05T10:38:13.846Z,36.68
2023-05-05T10:40:45.472Z,36.73
2023-05-05T10:43:15.259Z,36.81
2023-05-05T10:45:44.008Z,36.91
2023-05-05T10:48:21.823Z,36.95
2023-05-05T10:50:54.159Z,36.79
2023-05-05T10:53:29.223Z,36.52
2023-05-05T10:56:06.954Z,36.77
2023-05-05T10:58:47.084Z,36.80
2023-05-05T11:01:31.072Z,37.28
2023-05-05T11:04:19.212Z,36.91
2023-05-05T11:07:26.028Z,36.94
2023-05-05T11:10:01.690Z,36.53
2023-05-05T11:12:30.064Z,37.17
2023-05-05T11:15:38.043Z,37.12
2023-05-05T11:18:08.181Z,37.02
2023-05-05T11:21:07.380Z,36.77
2023-05-05T11:23:35.504Z,36.10
2023-05-05T11:26:04.776Z,35.57
2023-05-05T11:28:32.878Z,35.10
2023-05-05T11:31:20.344Z,34.74
2023-05-05T11:33:49.435Z,34.85
2023-05-05T11:36:17.931Z,35.09
2023-05-05T11:39:03.532Z,34.59
2023-05-05T11:42:05.325Z,34.29
2023-05-05T11:44:36.311Z,34.84
2023-05-05T11:47:30.224Z,34.38
2023-05-05T11:49:58.502Z,34.75
2023-05-05T11:52:28.071Z,34.62
2023-05-05T11:55:02.051Z,34.79
2023-05-05T11:57:31.836Z,34.87
2023-05-05T12:00:02.074Z,35.18
2023-05-05T12:02:31.539Z,35.18
2023-05-05T12:05:01.416Z,35.29
2023-05-05T12:07:30.473Z,35.43
2023-05-05T12:09:58.867Z,35.83
2023-05-05T12:12:39.480Z,36.13
2023-05-05T12:15:09.314Z,36.52
2023-05-05T12:17:40.386Z,36.89
2023-05-05T12:20:10.433Z,36.58
2023-05-05T12:22:38.734Z,35.80
2023-05-05T12:25:08.855Z,35.26
2023-05-05T12:27:38.831Z,35.23
2023-05-05T12:30:16.089Z,35.64
2023-05-05T12:32:44.578Z,35.43
2023-05-05T12:35:13.614Z,34.78
2023-05-05T12:37:42.190Z,34.93
2023-05-05T12:40:46.673Z,35.26
2023-05-05T12:43:32.990Z,35.22
2023-05-05T12:46:06.190Z,35.06
2023-05-05T12:48:35.202Z,34.41
2023-05-05T12:51:17.401Z,33.93
2023-05-05T12:53:46.001Z,33.84
2023-05-05T12:56:33.619Z,32.24
2023-05-05T12:59:03.956Z,31.58
2023-05-05T13:01:32.052Z,30.57
2023-05-05T13:04:10.983Z,29.19
2023-05-05T13:06:39.446Z,27.75
2023-05-05T13:09:09.034Z,29.52
2023-05-05T13:11:38.128Z,30.97
2023-05-05T13:14:08.166Z,31.21
2023-05-05T13:16:36.122Z,31.57
2023-05-05T13:19:04.115Z,32.38
2023-05-05T13:21:32.004Z,32.87
2023-05-05T13:24:12.463Z,33.83
2023-05-05T13:26:47.850Z,34.16
2023-05-05T13:29:17.539Z,34.46
2023-05-05T13:31:45.946Z,34.81
2023-05-05T13:34:14.240Z,35.33
2023-05-05T13:36:42.089Z,35.40
2023-05-05T13:39:09.913Z,35.81
2023-05-05T13:41:37.949Z,35.20
2023-05-05T13:44:05.977Z,33.69
2023-05-05T13:46:36.317Z,32.51
2023-05-05T13:49:04.505Z,31.71
2023-05-05T13:51:34.680Z,31.61
2023-05-05T13:54:03.039Z,32.04
2023-05-05T13:56:31.342Z,32.64
2023-05-05T13:58:59.959Z,32.92
2023-05-05T14:01:27.935Z,33.38
2023-05-05T14:03:57.898Z,33.73
2023-05-05T14:06:26.465Z,34.06
2023-05-05T14:08:54.468Z,34.55
2023-05-05T14:11:23.001Z,34.87
2023-05-05T14:13:52.029Z,34.07
2023-05-05T14:16:20.154Z,34.10
2023-05-05T14:18:48.267Z,33.82
2023-05-05T14:21:17.454Z,32.37
2023-05-05T14:23:45.306Z,31.49
2023-05-05T14:26:13.384Z,30.52
2023-05-05T14:28:42.268Z,30.14
2023-05-05T14:31:11.210Z,29.59
2023-05-05T14:33:39.280Z,29.65
2023-05-05T14:36:07.675Z,29.80
2023-05-05T14:38:36.953Z,29.40
2023-05-05T14:41:05.656Z,28.36
2023-05-05T14:43:33.612Z,29.00
2023-05-05T14:46:06.825Z,29.31
2023-05-05T14:48:35.511Z,29.17
2023-05-05T14:51:04.285Z,28.28
2023-05-05T14:53:32.251Z,28.65
2023-05-05T14:56:02.214Z,28.58
2023-05-05T14:58:31.129Z,28.71
2023-05-05T15:00:59.106Z,29.70
2023-05-05T15:03:27.224Z,30.64
2023-05-05T15:05:55.155Z,30.74
2023-05-05T15:08:23.270Z,31.50
2023-05-05T15:10:51.167Z,32.27
2023-05-05T15:13:20.478Z,33.20
2023-05-05T15:15:49.067Z,33.52
2023-05-05T15:18:17.329Z,34.37
2023-05-05T15:20:45.238Z,34.51
2023-05-05T15:23:13.248Z,35.02
2023-05-05T15:25:41.212Z,35.16
2023-05-05T15:28:09.120Z,35.40
2023-05-05T15:30:38.576Z,35.69
2023-05-05T15:33:07.056Z,36.18
2023-05-05T15:35:36.184Z,36.38
2023-05-05T15:38:04.348Z,36.32
2023-05-05T15:40:32.423Z,36.69
2023-05-05T15:43:00.318Z,36.88
2023-05-05T15:45:28.273Z,36.90
2023-05-05T15:47:57.580Z,37.27
2023-05-05T15:50:25.420Z,37.50
2023-05-05T15:52:57.054Z,37.52
2023-05-05T15:55:25.140Z,36.88
2023-05-05T15:57:53.019Z,35.53
2023-05-05T16:00:21.466Z,34.79
2023-05-05T16:02:49.559Z,35.09
2023-05-05T16:05:20.727Z,34.20
2023-05-05T16:07:51.045Z,33.95
2023-05-05T16:10:20.512Z,34.66
2023-05-05T16:12:48.492Z,34.95
2023-05-05T16:15:16.540Z,34.69
2023-05-05T16:17:44.425Z,35.06
2023-05-05T16:20:13.190Z,35.51
2023-05-05T16:22:42.753Z,36.19
2023-05-05T16:25:11.133Z,37.07
2023-05-05T16:27:39.125Z,37.14
2023-05-05T16:30:09.004Z,37.99
2023-05-05T16:32:36.957Z,37.90
2023-05-05T16:35:07.137Z,37.97
2023-05-05T16:37:35.423Z,38.40
2023-05-05T16:40:05.784Z,38.91
2023-05-05T16:42:33.678Z,38.85
2023-05-05T16:45:01.709Z,38.60
2023-05-05T16:47:29.812Z,38.16
2023-05-05T16:49:57.714Z,37.44
2023-05-05T16:52:25.861Z,36.88
2023-05-05T16:54:55.743Z,36.67
2023-05-05T16:57:25.246Z,36.64
2023-05-05T16:59:56.886Z,36.74
2023-05-05T17:02:24.772Z,36.48
2023-05-05T17:04:52.807Z,35.69
2023-05-05T17:07:20.931Z,35.86
2023-05-05T17:09:48.773Z,35.85
2023-05-05T17:12:16.630Z,36.13
2023-05-05T17:14:46.936Z,36.82
2023-05-05T17:17:15.453Z,37.53
2023-05-05T17:19:44.847Z,37.52
2023-05-05T17:22:12.912Z,38.29
2023-05-05T17:24:40.982Z,38.88
2023-05-05T17:27:08.804Z,38.81
2023-05-05T17:29:40.640Z,39.41
2023-05-05T17:32:10.199Z,39.25
2023-05-05T17:34:38.386Z,39.77
2023-05-05T17:37:06.353Z,39.54
2023-05-05T17:39:34.306Z,40.07
2023-05-05T17:42:02.394Z,40.23
2023-05-05T17:44:31.557Z,40.11
2023-05-05T17:46:59.451Z,40.49
2023-05-05T17:49:28.801Z,40.50
2023-05-05T17:51:56.744Z,41.08
2023-05-05T17:54:24.553Z,40.73
2023-05-05T17:56:52.645Z,41.42
2023-05-05T17:59:20.575Z,40.99
2023-05-05T18:01:48.450Z,40.96
2023-05-05T18:04:16.529Z,41.57
2023-05-05T18:06:45.814Z,41.77
2023-05-05T18:09:13.630Z,42.01
2023-05-05T18:11:42.193Z,42.21
2023-05-05T18:14:10.970Z,42.30
2023-05-05T18:16:38.818Z,42.46
2023-05-05T18:19:07.283Z,42.57
2023-05-05T18:21:35.271Z,42.70
2023-05-05T18:24:18.638Z,43.02
2023-05-05T18:26:49.021Z,42.84
2023-05-05T18:29:17.057Z,42.82
2023-05-05T18:31:45.003Z,42.29
2023-05-05T18:34:13.278Z,42.86
2023-05-05T18:36:41.128Z,42.70
2023-05-05T18:39:10.340Z,43.03
2023-05-05T18:41:38.482Z,42.80
2023-05-05T18:44:06.378Z,43.46
2023-05-05T18:46:34.230Z,43.50
2023-05-05T18:49:02.317Z,43.75
2023-05-05T18:51:30.303Z,43.91
2023-05-05T18:53:58.118Z,43.86
2023-05-05T18:56:27.524Z,44.36
2023-05-05T18:58:55.562Z,44.43
2023-05-05T19:01:23.549Z,44.53
2023-05-05T19:03:51.785Z,44.63
2023-05-05T19:06:19.652Z,44.88
2023-05-05T19:08:47.470Z,45.21
2023-05-05T19:11:15.625Z,45.25
2023-05-05T19:13:45.344Z,45.34
2023-05-05T19:16:13.431Z,45.46
2023-05-05T19:18:41.621Z,45.66
2023-05-05T19:21:09.538Z,45.59
2023-05-05T19:23:38.238Z,45.75
2023-05-05T19:26:06.242Z,46.02
2023-05-05T19:28:34.305Z,46.23
2023-05-05T19:31:03.530Z,46.15
2023-05-05T19:33:31.594Z,46.47
2023-05-05T19:35:59.448Z,46.38
2023-05-05T19:38:27.336Z,46.14
2023-05-05T19:40:55.373Z,46.78
2023-05-05T19:43:23.243Z,46.85
2023-05-05T19:45:51.105Z,46.66
2023-05-05T19:48:21.023Z,46.79
2023-05-05T19:50:48.939Z,46.82
2023-05-05T19:53:16.836Z,47.30
2023-05-05T19:55:44.865Z,47.18
2023-05-05T19:58:12.753Z,47.23
2023-05-05T20:00:40.577Z,47.31
2023-05-05T20:03:09.154Z,47.70
2023-05-05T20:05:38.763Z,48.05
2023-05-05T20:08:06.842Z,47.80
2023-05-05T20:10:34.955Z,48.20
2023-05-05T20:13:02.812Z,48.54
2023-05-05T20:15:31.387Z,48.37
2023-05-05T20:18:00.756Z,48.73
2023-05-05T20:20:28.617Z,49.36
2023-05-05T20:22:57.825Z,49.41
2023-05-05T20:25:26.037Z,49.44
2023-05-05T20:27:53.848Z,49.62
2023-05-05T20:30:21.735Z,49.65
2023-05-05T20:32:49.759Z,49.76
2023-05-05T20:35:17.687Z,50.18
2023-05-05T20:37:46.354Z,50.58
2023-05-05T20:40:16.087Z,50.20
2023-05-05T20:42:43.925Z,50.29
2023-05-05T20:45:12.618Z,50.53
2023-05-05T20:47:40.820Z,51.15
2023-05-05T20:50:09.692Z,50.71
2023-05-05T20:52:37.804Z,51.00
2023-05-05T20:55:06.447Z,50.91
2023-05-05T20:57:35.649Z,51.09
2023-05-05T21:00:04.203Z,51.32
2023-05-05T21:02:33.465Z,51.82
2023-05-05T21:05:03.079Z,52.09
2023-05-05T21:07:33.203Z,51.70
2023-05-05T21:10:01.635Z,52.13
2023-05-05T21:12:29.934Z,52.11
2023-05-05T21:14:59.656Z,51.84
2023-05-05T21:17:28.177Z,52.62
2023-05-05T21:19:56.926Z,52.01
2023-05-05T21:22:25.033Z,52.26
2023-05-05T21:24:53.031Z,52.84
2023-05-05T21:27:22.211Z,53.11
2023-05-05T21:29:52.050Z,53.09
2023-05-05T21:32:21.486Z,53.62
2023-05-05T21:34:49.453Z,53.58
2023-05-05T21:37:17.398Z,53.79
2023-05-05T21:39:45.528Z,53.90
2023-05-05T21:42:13.386Z,53.74
2023-05-05T21:44:41.198Z,54.08
2023-05-05T21:47:09.402Z,53.85
2023-05-05T21:49:38.680Z,54.58
2023-05-05T21:52:06.550Z,54.13
2023-05-05T21:54:34.704Z,54.82
2023-05-05T21:57:02.854Z,54.39
2023-05-05T21:59:30.760Z,54.75
2023-05-05T22:01:59.057Z,54.70
2023-05-05T22:04:26.958Z,54.78
2023-05-05T22:06:56.579Z,55.35
2023-05-05T22:09:24.796Z,55.14
2023-05-05T22:11:52.734Z,55.87
2023-05-05T22:14:21.439Z,55.63
2023-05-05T22:16:49.566Z,56.15
2023-05-05T22:19:17.404Z,56.13
2023-05-05T22:21:45.225Z,56.37
2023-05-05T22:24:14.674Z,56.62
2023-05-05T22:26:43.435Z,56.00
2023-05-05T22:29:11.588Z,56.47
2023-05-05T22:31:39.827Z,56.75
2023-05-05T22:34:07.836Z,56.40
2023-05-05T22:36:35.659Z,57.34
2023-05-05T22:39:03.773Z,57.20
2023-05-05T22:41:32.987Z,57.02
2023-05-05T22:44:00.811Z,57.17
2023-05-05T22:46:29.039Z,57.36
2023-05-05T22:48:56.914Z,57.42
2023-05-05T22:51:24.864Z,57.50
2023-05-05T22:53:53.053Z,57.90
2023-05-05T22:56:20.979Z,58.04
2023-05-05T22:58:50.265Z,57.84
2023-05-05T23:01:18.330Z,58.02
2023-05-05T23:03:46.155Z,57.91
2023-05-05T23:06:13.964Z,57.87
2023-05-05T23:08:42.159Z,58.11
2023-05-05T23:11:10.000Z,58.06
2023-05-05T23:13:37.845Z,58.75
2023-05-05T23:16:07.434Z,58.64
2023-05-05T23:18:35.537Z,58.41
2023-05-05T23:21:03.389Z,58.83
2023-05-05T23:23:32.092Z,58.86
2023-05-05T23:25:59.921Z,58.54
2023-05-05T23:28:27.773Z,59.01
2023-05-05T23:30:55.918Z,59.43
2023-05-05T23:33:25.164Z,59.17
2023-05-05T23:35:53.098Z,59.01
2023-05-05T23:38:21.142Z,59.50
2023-05-05T23:40:48.993Z,59.34
2023-05-05T23:43:16.842Z,59.76
2023-05-05T23:45:44.841Z,59.54
2023-05-05T23:48:13.208Z,60.07
2023-05-05T23:50:42.400Z,60.01
2023-05-05T23:53:10.625Z,60.21
2023-05-05T23:55:38.546Z,60.02
2023-05-05T23:58:06.403Z,59.79
